createdAt,value
2022-08-26T00:01:54.877Z,19.30
2022-08-26T00:06:57.485Z,19.35
2022-08-26T00:12:00.591Z,19.39
2022-08-26T00:17:02.616Z,19.43
2022-08-26T00:22:04.892Z,19.47
2022-08-26T00:27:06.969Z,19.43
2022-08-26T00:32:09.361Z,19.40
2022-08-26T00:37:16.248Z,19.33
2022-08-26T00:42:18.851Z,19.28
2022-08-26T00:47:44.136Z,19.28
2022-08-26T00:52:46.948Z,19.20
2022-08-26T00:57:51.481Z,19.16
2022-08-26T01:02:56.123Z,19.09
2022-08-26T01:07:58.526Z,19.05
2022-08-26T01:13:06.383Z,19.00
2022-08-26T01:18:09.443Z,18.95
2022-08-26T01:23:12.729Z,18.91
2022-08-26T01:28:24.280Z,18.83
2022-08-26T01:33:43.748Z,18.79
2022-08-26T01:38:46.032Z,18.72
2022-08-26T01:43:53.428Z,18.68
2022-08-26T01:48:58.769Z,18.63
2022-08-26T01:54:01.048Z,18.58
2022-08-26T01:59:09.444Z,18.51
2022-08-26T02:04:31.156Z,18.45
2022-08-26T02:09:33.273Z,18.36
2022-08-26T02:14:44.503Z,18.27
2022-08-26T02:19:49.687Z,18.26
2022-08-26T02:25:13.482Z,18.32
2022-08-26T02:30:21.610Z,18.39
2022-08-26T02:35:23.962Z,18.41
2022-08-26T02:40:30.805Z,18.43
2022-08-26T02:45:34.044Z,18.43
2022-08-26T05:08:11.470Z,23.41
2022-08-26T05:13:15.735Z,23.73
2022-08-26T05:18:21.510Z,24.01
2022-08-26T05:23:25.555Z,23.99
2022-08-26T05:28:29.719Z,23.55
2022-08-26T05:33:31.769Z,23.23
2022-08-26T05:38:33.632Z,22.86
2022-08-26T05:43:37.570Z,22.60
2022-08-26T05:48:46.921Z,22.52
2022-08-26T05:54:03.631Z,22.47
2022-08-26T06:40:50.737Z,23.53
2022-08-26T06:46:02.052Z,23.64
2022-08-26T06:51:22.410Z,24.01
2022-08-26T06:56:39.511Z,24.28
2022-08-26T07:05:49.604Z,24.69
2022-08-26T07:10:56.051Z,24.84
2022-08-26T07:15:58.414Z,25.22
2022-08-26T07:21:07.979Z,25.61
2022-08-26T07:26:18.004Z,26.00
2022-08-26T07:31:24.187Z,26.22
2022-08-26T07:36:28.301Z,26.36
2022-08-26T07:46:37.180Z,26.94
2022-08-26T07:51:46.434Z,27.01
2022-08-26T07:56:48.721Z,26.97
2022-08-26T08:01:51.470Z,27.10
2022-08-26T08:06:55.883Z,27.37
2022-08-26T08:12:19.169Z,27.65
2022-08-26T08:17:34.732Z,28.05
2022-08-26T08:22:37.118Z,28.45
2022-08-26T08:27:40.661Z,28.73
2022-08-26T08:32:51.455Z,28.92
2022-08-26T08:37:59.161Z,29.02
2022-08-26T08:43:07.366Z,29.04
2022-08-26T08:48:19.069Z,29.24
2022-08-26T08:53:36.314Z,29.37
2022-08-26T08:58:48.220Z,29.66
2022-08-26T09:03:55.972Z,29.91
2022-08-26T09:09:01.513Z,30.21
2022-08-26T09:14:23.070Z,30.67
2022-08-26T09:19:55.431Z,31.12
2022-08-26T09:24:57.561Z,31.33
2022-08-26T09:30:01.033Z,31.44
2022-08-26T09:35:08.106Z,31.64
2022-08-26T09:40:17.912Z,31.83
2022-08-26T09:45:41.176Z,32.02
2022-08-26T09:50:57.273Z,32.12
2022-08-26T09:56:11.292Z,32.19
2022-08-26T10:01:25.961Z,32.47
2022-08-26T10:06:28.971Z,32.52
2022-08-26T10:11:36.943Z,32.53
2022-08-26T10:17:02.512Z,32.75
2022-08-26T10:22:13.878Z,32.94
2022-08-26T10:27:24.483Z,32.90
2022-08-26T10:32:48.482Z,32.99
2022-08-26T10:37:59.418Z,33.14
2022-08-26T10:43:23.752Z,33.13
2022-08-26T10:48:42.213Z,33.05
2022-08-26T10:54:06.924Z,33.19
2022-08-26T10:59:36.715Z,33.25
2022-08-26T11:04:55.514Z,33.29
2022-08-26T11:10:04.309Z,33.08
2022-08-26T11:15:34.003Z,33.09
2022-08-26T11:20:42.027Z,33.04
2022-08-26T11:25:57.230Z,33.38
2022-08-26T11:31:24.369Z,33.49
2022-08-26T11:36:46.949Z,33.54
2022-08-26T11:41:52.758Z,33.57
2022-08-26T11:47:00.425Z,33.43
2022-08-26T11:52:26.783Z,33.42
2022-08-26T11:57:33.269Z,33.46
2022-08-26T12:02:35.274Z,33.48
2022-08-26T12:07:38.148Z,33.74
2022-08-26T12:12:56.707Z,33.79
2022-08-26T12:18:15.971Z,33.89
2022-08-26T12:23:36.493Z,33.72
2022-08-26T12:28:47.957Z,33.77
2022-08-26T12:33:51.051Z,33.98
2022-08-26T12:38:57.994Z,34.45
2022-08-26T12:44:00.411Z,34.62
2022-08-26T12:49:03.551Z,34.45
2022-08-26T12:54:07.039Z,34.18
2022-08-26T12:59:19.970Z,34.22
2022-08-26T13:04:36.444Z,33.96
2022-08-26T13:09:38.813Z,33.85
2022-08-26T13:14:41.167Z,33.82
2022-08-26T13:19:43.862Z,33.98
2022-08-26T13:24:46.266Z,33.97
2022-08-26T13:29:48.189Z,33.93
2022-08-26T13:34:51.851Z,34.10
2022-08-26T13:39:54.699Z,34.15
2022-08-26T13:44:58.287Z,34.16
2022-08-26T13:50:00.441Z,34.26
2022-08-26T13:55:02.640Z,34.42
2022-08-26T14:00:05.845Z,34.47
2022-08-26T14:05:13.659Z,34.43
2022-08-26T14:10:15.847Z,34.40
2022-08-26T14:15:18.853Z,34.69
2022-08-26T14:20:33.221Z,35.02
2022-08-26T14:25:49.412Z,34.95
2022-08-26T14:30:55.354Z,34.88
2022-08-26T14:36:17.357Z,34.77
2022-08-26T14:41:21.073Z,35.04
2022-08-26T14:46:23.826Z,35.22
2022-08-26T14:51:26.275Z,35.36
2022-08-26T14:56:31.289Z,35.42
2022-08-26T15:01:33.439Z,35.28
2022-08-26T15:06:36.611Z,35.15
2022-08-26T15:11:38.995Z,35.09
2022-08-26T15:16:41.186Z,35.18
2022-08-26T15:21:45.397Z,35.17
2022-08-26T15:26:48.929Z,35.12
2022-08-26T15:31:51.013Z,34.98
2022-08-26T15:36:52.999Z,34.83
2022-08-26T15:41:56.407Z,34.86
2022-08-26T15:46:59.209Z,34.87
2022-08-26T15:52:04.221Z,34.80
2022-08-26T15:57:10.755Z,34.84
2022-08-26T16:02:13.804Z,34.83
2022-08-26T16:07:15.818Z,34.71
2022-08-26T16:12:18.145Z,34.51
2022-08-26T16:17:20.707Z,34.42
2022-08-26T16:22:31.391Z,34.39
2022-08-26T16:27:35.660Z,34.34
2022-08-26T16:32:38.143Z,34.24
2022-08-26T16:37:40.915Z,34.01
2022-08-26T16:42:42.923Z,33.55
2022-08-26T16:47:44.907Z,33.08
2022-08-26T16:52:51.875Z,32.52
2022-08-26T16:57:58.153Z,31.88
2022-08-26T17:03:01.479Z,31.28
2022-08-26T17:08:06.933Z,30.64
2022-08-26T17:13:09.330Z,29.69
2022-08-26T17:18:12.284Z,28.88
2022-08-26T17:23:15.334Z,28.31
2022-08-26T17:28:17.612Z,27.79
2022-08-26T17:33:22.123Z,27.26
2022-08-26T17:38:29.296Z,26.73
2022-08-26T17:43:31.746Z,26.17
2022-08-26T17:48:35.150Z,25.59
2022-08-26T17:53:44.191Z,25.09
2022-08-26T17:58:55.545Z,24.67
2022-08-26T18:04:00.617Z,24.36
2022-08-26T18:09:03.969Z,24.08
2022-08-26T18:14:05.944Z,23.81
2022-08-26T18:19:08.948Z,23.53
2022-08-26T18:24:13.971Z,23.27
2022-08-26T18:29:18.240Z,23.04
2022-08-26T18:34:21.112Z,22.88
2022-08-26T18:39:23.468Z,22.78
2022-08-26T18:44:25.644Z,22.69
2022-08-26T18:49:27.698Z,22.62
2022-08-26T18:54:30.178Z,22.53
2022-08-26T18:59:39.329Z,22.41
2022-08-26T19:04:45.382Z,22.26
2022-08-26T19:09:47.578Z,22.12
2022-08-26T19:14:56.149Z,21.96
2022-08-26T19:19:58.137Z,21.78
2022-08-26T19:25:01.106Z,21.62
2022-08-26T19:30:11.262Z,21.42
2022-08-26T19:35:13.770Z,21.18
2022-08-26T19:40:16.119Z,20.98
2022-08-26T19:45:25.078Z,20.82
2022-08-26T19:50:29.330Z,20.74
2022-08-26T19:55:31.823Z,20.72
2022-08-26T20:00:35.822Z,20.73
2022-08-26T20:05:44.728Z,20.71
2022-08-26T20:10:49.955Z,20.66
2022-08-26T20:15:52.242Z,20.64
2022-08-26T20:21:17.670Z,20.61
2022-08-26T20:26:19.647Z,20.59
2022-08-26T20:31:21.983Z,20.59
2022-08-26T20:36:28.578Z,20.62
2022-08-26T20:41:31.565Z,20.63
2022-08-26T20:46:55.175Z,20.59
2022-08-26T20:52:04.068Z,20.51
2022-08-26T20:57:06.416Z,20.44
2022-08-26T21:02:08.529Z,20.38
2022-08-26T21:07:10.708Z,20.30
2022-08-26T21:12:12.997Z,20.19
2022-08-26T21:17:15.083Z,20.10
2022-08-26T21:22:16.997Z,20.00
2022-08-26T21:27:23.105Z,19.95
2022-08-26T21:32:28.905Z,19.89
2022-08-26T21:37:30.884Z,19.83
2022-08-26T21:42:34.707Z,19.74
2022-08-26T21:47:43.995Z,19.68
2022-08-26T21:52:46.450Z,19.61
2022-08-26T21:57:48.457Z,19.53
2022-08-26T22:02:50.528Z,19.47
2022-08-26T22:07:52.970Z,19.44
2022-08-26T22:12:55.155Z,19.41
2022-08-26T22:17:57.269Z,19.32
2022-08-26T22:22:59.473Z,19.20
2022-08-26T22:28:01.746Z,19.03
2022-08-26T22:33:05.228Z,18.83
2022-08-26T22:38:08.609Z,18.66
2022-08-26T22:43:11.063Z,18.54
2022-08-26T22:48:15.906Z,18.43
2022-08-26T22:53:23.718Z,18.32
2022-08-26T22:58:30.845Z,18.25
2022-08-26T23:03:35.520Z,18.17
2022-08-26T23:08:39.623Z,18.14
2022-08-26T23:13:41.579Z,18.11
2022-08-26T23:18:43.450Z,18.10
2022-08-26T23:23:45.792Z,18.18
2022-08-26T23:28:47.823Z,18.30
2022-08-26T23:34:08.461Z,18.36
2022-08-26T23:39:11.340Z,18.34
2022-08-26T23:44:13.535Z,18.21
2022-08-26T23:49:26.400Z,18.07
2022-08-26T23:54:28.956Z,17.96
2022-08-26T23:59:30.974Z,17.88
